Time;durP1;ratioP1;P1;durP2;ratioP2;P2;SDS_P1;SDS_P2;PMS_P1;PMS_P2;Temp;Humidity;BMP_temperature;BMP_pressure;BME280_temperature;BME280_humidity;BME280_pressure;Samples;Min_cycle;Max_cycle;Signal;HPM_P1;HPM_P2
2023/01/12 00:00:56;;;;;;;;;1.00;1.00;;;;;;;;5282132;27;8894;-73
2023/01/12 00:03:27;;;;;;;;;1.00;1.00;;;;;;;;5282218;27;11383;-72
2023/01/12 00:06:06;;;;;;;;;0.00;0.00;;;;;;;;5334684;27;8776;-72
2023/01/12 00:08:38;;;;;;;;;2.20;2.20;;;;;;;;5315883;27;8768;-72
2023/01/12 00:11:27;;;;;;;;;0.60;0.60;;;;;;;;5319504;27;8828;-72
2023/01/12 00:13:59;;;;;;;;;3.00;3.00;;;;;;;;5299439;27;9502;-72
2023/01/12 00:16:39;;;;;;;;;3.80;3.00;;;;;;;;5315991;27;8764;-72
2023/01/12 00:19:16;;;;;;;;;2.60;1.80;;;;;;;;5334334;27;8899;-71
2023/01/12 00:22:10;;;;;;;;;0.20;0.20;;;;;;;;5334072;27;8898;-72
2023/01/12 00:24:44;;;;;;;;;3.00;3.00;;;;;;;;5315390;27;8756;-71
2023/01/12 00:27:17;;;;;;;;;1.00;1.00;;;;;;;;5298359;27;8780;-72
2023/01/12 00:29:49;;;;;;;;;1.00;1.00;;;;;;;;5298306;27;8808;-73
2023/01/12 00:32:38;;;;;;;;;1.80;1.80;;;;;;;;5318934;27;8782;-73
2023/01/12 00:35:27;;;;;;;;;2.20;2.20;;;;;;;;5301253;27;8856;-74
2023/01/12 00:37:58;;;;;;;;;0.80;0.80;;;;;;;;5281363;27;8938;-72
2023/01/12 00:40:29;;;;;;;;;1.00;1.00;;;;;;;;5315414;27;8852;-74
2023/01/12 00:45:51;;;;;;;;;3.00;3.00;;;;;;;;5315536;27;8764;-74
2023/01/12 00:48:23;;;;;;;;;3.00;3.00;;;;;;;;5298125;27;8779;-74
2023/01/12 00:50:54;;;;;;;;;2.20;1.80;;;;;;;;5298334;27;8874;-73
2023/01/12 00:53:25;;;;;;;;;2.20;2.20;;;;;;;;5297955;27;8898;-73
2023/01/12 00:56:00;;;;;;;;;1.80;1.80;;;;;;;;5315007;27;8764;-74
2023/01/12 00:58:31;;;;;;;;;1.00;1.00;;;;;;;;5315068;27;8844;-74
2023/01/12 01:01:03;;;;;;;;;3.20;3.20;;;;;;;;5298090;27;8778;-71
2023/01/12 01:03:35;;;;;;;;;5.00;3.80;;;;;;;;5303420;27;8771;-70
2023/01/12 01:06:25;;;;;;;;;3.00;3.00;;;;;;;;5309251;27;8836;-71
2023/01/12 01:08:56;;;;;;;;;1.00;1.00;;;;;;;;5322071;27;8788;-72
2023/01/12 01:11:27;;;;;;;;;6.20;6.20;;;;;;;;5280939;27;8840;-72
2023/01/12 01:13:58;;;;;;;;;3.40;3.40;;;;;;;;5315195;27;8764;-72
2023/01/12 01:16:30;;;;;;;;;7.00;4.00;;;;;;;;5315116;27;8783;-73
2023/01/12 01:19:03;;;;;;;;;3.00;3.00;;;;;;;;5298475;27;8764;-72
2023/01/12 01:21:53;;;;;;;;;2.60;2.60;;;;;;;;5300303;27;8775;-72
2023/01/12 01:24:24;;;;;;;;;1.00;1.00;;;;;;;;5280676;27;8780;-72
2023/01/12 01:26:56;;;;;;;;;3.00;3.00;;;;;;;;5314989;27;8782;-73
2023/01/12 01:29:27;;;;;;;;;1.00;0.00;;;;;;;;5314995;27;8790;-72
2023/01/12 01:31:58;;;;;;;;;3.20;3.20;;;;;;;;5297185;27;8798;-72
2023/01/12 01:34:29;;;;;;;;;1.00;1.00;;;;;;;;5313912;27;8904;-73
2023/01/12 01:37:01;;;;;;;;;2.60;2.60;;;;;;;;5297022;27;8764;-72
2023/01/12 01:39:32;;;;;;;;;0.00;0.00;;;;;;;;5297042;27;8844;-72
2023/01/12 01:42:03;;;;;;;;;3.60;2.20;;;;;;;;5296777;27;8815;-72
2023/01/12 01:44:43;;;;;;;;;1.00;1.00;;;;;;;;5332510;27;8800;-72
2023/01/12 01:47:23;;;;;;;;;2.20;2.20;;;;;;;;5279758;27;8772;-73
2023/01/12 01:49:55;;;;;;;;;1.00;1.00;;;;;;;;5279837;27;8824;-73
2023/01/12 01:52:36;;;;;;;;;10.40;10.00;;;;;;;;5279890;27;8764;-73
2023/01/12 01:55:10;;;;;;;;;5.00;5.00;;;;;;;;5296901;27;8764;-73
2023/01/12 01:57:44;;;;;;;;;4.00;4.00;;;;;;;;5314234;27;8784;-72
2023/01/12 02:00:15;;;;;;;;;6.40;6.40;;;;;;;;5332078;27;8780;-73
2023/01/12 02:02:47;;;;;;;;;0.60;0.60;;;;;;;;5296809;27;8790;-74
2023/01/12 02:05:20;;;;;;;;;0.00;0.00;;;;;;;;5296917;27;8837;-73
2023/01/12 02:07:52;;;;;;;;;3.00;3.00;;;;;;;;5296258;27;8772;-73
2023/01/12 02:10:23;;;;;;;;;3.00;3.00;;;;;;;;5279421;27;8816;-73
2023/01/12 02:18:51;;;;;;;;;3.00;3.00;;;;;;;;5331672;27;8776;-74
2023/01/12 02:21:22;;;;;;;;;1.00;1.00;;;;;;;;5279458;27;8784;-72
2023/01/12 02:24:22;;;;;;;;;0.00;0.00;;;;;;;;5299068;27;8853;-72
2023/01/12 02:26:56;;;;;;;;;0.40;0.40;;;;;;;;5313713;27;8791;-73
2023/01/12 02:29:46;;;;;;;;;0.00;0.00;;;;;;;;5279267;27;8776;-74
2023/01/12 02:32:23;;;;;;;;;0.60;0.60;;;;;;;;5313768;27;8768;-73
2023/01/12 02:34:54;;;;;;;;;1.00;1.00;;;;;;;;5313582;27;8892;-73
2023/01/12 02:37:25;;;;;;;;;1.00;1.00;;;;;;;;5296047;27;8780;-74
2023/01/12 02:39:58;;;;;;;;;0.00;0.00;;;;;;;;5312877;27;8783;-75
2023/01/12 02:42:40;;;;;;;;;3.40;3.40;;;;;;;;5279762;27;8800;-74
2023/01/12 02:45:47;;;;;;;;;3.00;3.00;;;;;;;;5313582;27;8760;-73
2023/01/12 02:48:27;;;;;;;;;3.00;3.00;;;;;;;;5207204;28;8790;-73
2023/01/12 02:51:10;;;;;;;;;3.00;3.00;;;;;;;;5320553;27;8820;-74
2023/01/12 02:53:45;;;;;;;;;2.40;2.40;;;;;;;;5313662;27;8772;-74
2023/01/12 02:56:38;;;;;;;;;2.20;2.20;;;;;;;;5300520;27;8787;-74
2023/01/12 02:59:15;;;;;;;;;0.40;0.40;;;;;;;;5314551;27;8799;-74
2023/01/12 03:01:50;;;;;;;;;3.00;3.00;;;;;;;;5296721;27;8768;-74
2023/01/12 03:04:21;;;;;;;;;1.00;1.00;;;;;;;;5312735;27;8764;-74
2023/01/12 03:06:55;;;;;;;;;4.00;1.00;;;;;;;;5295619;27;8779;-74
2023/01/12 03:09:29;;;;;;;;;0.40;0.40;;;;;;;;5278144;27;8890;-74
2023/01/12 03:12:05;;;;;;;;;2.20;1.00;;;;;;;;5295943;27;8767;-74
2023/01/12 03:14:38;;;;;;;;;1.00;1.00;;;;;;;;5295780;27;8782;-74
2023/01/12 03:17:12;;;;;;;;;5.60;5.60;;;;;;;;5278588;27;8764;-74
2023/01/12 03:19:44;;;;;;;;;1.40;1.40;;;;;;;;5295559;27;8781;-74
2023/01/12 03:22:35;;;;;;;;;1.00;1.00;;;;;;;;5313034;27;9506;-74
2023/01/12 03:25:12;;;;;;;;;2.60;2.60;;;;;;;;5299309;27;8784;-74
2023/01/12 03:27:47;;;;;;;;;3.60;3.60;;;;;;;;5335988;27;8795;-80
2023/01/12 03:30:23;;;;;;;;;5.60;3.00;;;;;;;;5317370;27;8922;-76
2023/01/12 03:32:55;;;;;;;;;6.60;6.60;;;;;;;;5316543;27;8784;-79
2023/01/12 03:35:27;;;;;;;;;2.20;2.20;;;;;;;;5299744;27;8780;-79
2023/01/12 03:42:32;;;;;;;;;4.40;4.40;;;;;;;;5338930;27;9424;-83
2023/01/12 03:45:12;;;;;;;;;2.20;2.20;;;;;;;;5306205;27;8803;-83
2023/01/12 03:47:43;;;;;;;;;3.80;3.80;;;;;;;;5311070;27;8788;-85
2023/01/12 03:50:22;;;;;;;;;0.80;0.80;;;;;;;;5311204;27;8968;-83
2023/01/12 03:52:55;;;;;;;;;1.00;1.00;;;;;;;;5299953;27;8768;-83
2023/01/12 03:55:28;;;;;;;;;8.60;8.20;;;;;;;;5296391;27;8816;-82
2023/01/12 03:58:00;;;;;;;;;2.20;2.20;;;;;;;;5313396;27;8775;-82
2023/01/12 04:00:31;;;;;;;;;6.60;6.20;;;;;;;;5327989;27;8867;-77
2023/01/12 04:03:13;;;;;;;;;3.00;3.00;;;;;;;;5300664;27;8810;-80
2023/01/12 04:05:44;;;;;;;;;4.00;3.60;;;;;;;;5301471;27;9665;-77
2023/01/12 04:08:16;;;;;;;;;6.00;6.00;;;;;;;;5289160;27;8782;-81
2023/01/12 04:10:47;;;;;;;;;4.00;4.00;;;;;;;;5343988;27;8787;-82
2023/01/12 04:13:18;;;;;;;;;7.80;7.80;;;;;;;;5293315;27;8772;-83
2023/01/12 04:15:50;;;;;;;;;11.40;11.20;;;;;;;;5324769;27;8851;-81
2023/01/12 04:18:21;;;;;;;;;7.40;6.60;;;;;;;;5286606;27;8764;-80
2023/01/12 04:20:53;;;;;;;;;6.60;6.60;;;;;;;;5304617;27;8820;-81
2023/01/12 04:23:24;;;;;;;;;10.00;10.00;;;;;;;;5317507;27;8800;-80
2023/01/12 04:26:16;;;;;;;;;9.80;9.80;;;;;;;;5316064;27;8810;-77
2023/01/12 04:28:48;;;;;;;;;7.80;6.40;;;;;;;;5298058;27;8776;-76
2023/01/12 04:31:19;;;;;;;;;3.20;3.20;;;;;;;;5315578;27;8827;-77
2023/01/12 04:33:50;;;;;;;;;1.40;1.40;;;;;;;;5281528;27;8967;-79
2023/01/12 04:36:41;;;;;;;;;2.20;2.20;;;;;;;;5314690;27;8771;-77
2023/01/12 04:39:31;;;;;;;;;2.60;1.80;;;;;;;;5301063;27;8760;-83
2023/01/12 04:42:02;;;;;;;;;9.40;9.40;;;;;;;;5298178;27;8819;-80
2023/01/12 04:49:04;;;;;;;;;0.20;0.20;;;;;;;;5334203;27;8764;-83
2023/01/12 04:51:35;;;;;;;;;6.20;6.20;;;;;;;;5333827;27;8776;-76
2023/01/12 04:54:06;;;;;;;;;5.60;5.60;;;;;;;;5297949;27;9454;-79
2023/01/12 04:56:37;;;;;;;;;4.00;4.00;;;;;;;;5281107;27;8780;-76
2023/01/12 04:59:09;;;;;;;;;3.00;3.00;;;;;;;;5297537;27;8836;-75
2023/01/12 05:01:40;;;;;;;;;3.80;3.80;;;;;;;;5281635;27;8784;-75
2023/01/12 05:04:13;;;;;;;;;1.40;1.00;;;;;;;;5315822;27;8772;-74
2023/01/12 05:06:44;;;;;;;;;3.60;3.60;;;;;;;;5281384;27;8839;-74
2023/01/12 05:12:06;;;;;;;;;4.00;4.00;;;;;;;;5297703;27;8766;-82
2023/01/12 05:19:00;;;;;;;;;4.00;4.00;;;;;;;;5334140;27;8697;-80
2023/01/12 05:21:32;;;;;;;;;6.00;6.00;;;;;;;;5299079;27;8863;-85
2023/01/12 05:24:04;;;;;;;;;0.00;0.00;;;;;;;;5299470;27;8779;-85
2023/01/12 05:27:03;;;;;;;;;6.40;6.40;;;;;;;;5298656;27;8804;-80
2023/01/12 05:38:22;;;;;;;;;9.00;8.60;;;;;;;;5313502;27;8698;-79
2023/01/12 05:40:53;;;;;;;;;5.60;4.80;;;;;;;;5278780;27;8895;-80
2023/01/12 05:43:51;;;;;;;;;16.60;14.40;;;;;;;;5293220;27;8789;-78
2023/01/12 05:46:50;;;;;;;;;8.60;8.60;;;;;;;;5275474;27;8919;-80
2023/01/12 05:49:21;;;;;;;;;4.40;4.20;;;;;;;;5276588;27;8804;-81
2023/01/12 05:51:52;;;;;;;;;8.00;8.00;;;;;;;;5277020;27;8789;-81
2023/01/12 05:54:23;;;;;;;;;6.20;6.20;;;;;;;;5260787;27;10259;-81
2023/01/12 05:56:54;;;;;;;;;0.20;0.20;;;;;;;;5316230;27;8797;-84
2023/01/12 05:59:25;;;;;;;;;9.20;8.20;;;;;;;;5279188;27;8803;-86
2023/01/12 06:01:57;;;;;;;;;8.20;8.20;;;;;;;;5278892;27;9483;-81
2023/01/12 06:08:52;;;;;;;;;7.00;4.80;;;;;;;;5310910;27;8709;-78
2023/01/12 06:14:15;;;;;;;;;11.20;7.80;;;;;;;;5276966;27;8808;-76
2023/01/12 06:16:46;;;;;;;;;14.60;14.60;;;;;;;;5258720;27;8807;-79
2023/01/12 06:19:17;;;;;;;;;7.00;6.80;;;;;;;;5275857;27;8907;-82
2023/01/12 06:21:50;;;;;;;;;7.00;7.00;;;;;;;;5292622;27;9499;-76
2023/01/12 06:24:21;;;;;;;;;6.00;6.00;;;;;;;;5275855;27;8807;-81
2023/01/12 06:26:53;;;;;;;;;5.20;5.20;;;;;;;;5259561;27;9478;-80
2023/01/12 06:29:43;;;;;;;;;44.50;41.00;;;;;;;;5295428;27;8944;-82
2023/01/12 06:36:46;;;;;;;;;0.60;0.60;;;;;;;;5332330;27;8716;-83
2023/01/12 06:39:17;;;;;;;;;7.00;7.00;;;;;;;;5273702;27;8796;-84
2023/01/12 06:44:38;;;;;;;;;4.60;4.60;;;;;;;;5284258;27;8872;-76
2023/01/12 06:47:30;;;;;;;;;3.60;3.20;;;;;;;;5285965;27;8776;-82
2023/01/12 06:50:20;;;;;;;;;6.80;6.60;;;;;;;;5281170;27;8823;-81
2023/01/12 06:52:51;;;;;;;;;0.20;0.20;;;;;;;;5278585;27;8769;-84
2023/01/12 06:55:23;;;;;;;;;16.60;15.60;;;;;;;;5313307;27;8864;-80
2023/01/12 06:57:55;;;;;;;;;6.60;6.60;;;;;;;;5295800;27;8765;-86
2023/01/12 07:00:26;;;;;;;;;1.40;1.40;;;;;;;;5280954;27;8796;-81
2023/01/12 07:11:57;;;;;;;;;3.60;3.60;;;;;;;;5309835;27;8729;-77
2023/01/12 07:14:46;;;;;;;;;4.80;4.80;;;;;;;;5280490;27;8811;-77
2023/01/12 07:17:20;;;;;;;;;6.00;6.00;;;;;;;;5301926;27;8793;-77
2023/01/12 07:19:52;;;;;;;;;9.60;9.60;;;;;;;;5298632;27;8878;-76
2023/01/12 07:22:26;;;;;;;;;6.20;6.20;;;;;;;;5261016;27;8788;-76
2023/01/12 07:24:58;;;;;;;;;4.80;4.80;;;;;;;;5291350;27;8807;-76
2023/01/12 07:27:29;;;;;;;;;7.80;7.80;;;;;;;;5257538;27;8784;-77
2023/01/12 07:30:03;;;;;;;;;4.00;4.00;;;;;;;;5258179;27;8969;-76
2023/01/12 07:32:38;;;;;;;;;1.00;1.00;;;;;;;;5275494;27;8837;-74
2023/01/12 07:35:09;;;;;;;;;12.60;12.60;;;;;;;;5257668;27;8784;-75
2023/01/12 07:37:47;;;;;;;;;6.00;6.00;;;;;;;;5257532;27;8796;-75
2023/01/12 07:40:40;;;;;;;;;7.00;7.00;;;;;;;;5295781;27;8864;-76
2023/01/12 07:43:13;;;;;;;;;3.80;3.80;;;;;;;;5331570;27;8757;-76
2023/01/12 07:45:45;;;;;;;;;4.40;4.40;;;;;;;;5278776;27;9391;-75
2023/01/12 07:48:17;;;;;;;;;0.80;0.80;;;;;;;;5294870;27;9488;-75
2023/01/12 07:51:07;;;;;;;;;11.20;10.00;;;;;;;;5297675;27;8793;-76
2023/01/12 07:53:38;;;;;;;;;8.20;8.20;;;;;;;;5330756;27;8872;-76
2023/01/12 07:56:12;;;;;;;;;5.80;5.80;;;;;;;;5296073;27;8765;-76
2023/01/12 07:58:47;;;;;;;;;7.80;6.80;;;;;;;;5312207;27;8800;-76
2023/01/12 08:01:18;;;;;;;;;4.40;4.40;;;;;;;;5295147;27;8817;-76
2023/01/12 08:03:49;;;;;;;;;1.00;1.00;;;;;;;;5312152;27;8781;-77
2023/01/12 08:06:21;;;;;;;;;6.80;6.80;;;;;;;;5294769;27;8773;-76
2023/01/12 08:08:53;;;;;;;;;4.00;4.00;;;;;;;;5278227;27;8893;-77
2023/01/12 08:11:24;;;;;;;;;7.00;7.00;;;;;;;;5300461;27;8781;-77
2023/01/12 08:13:56;;;;;;;;;4.00;4.00;;;;;;;;5281922;27;8805;-77
2023/01/12 08:16:34;;;;;;;;;5.60;5.60;;;;;;;;5282081;27;8781;-77
2023/01/12 08:19:08;;;;;;;;;3.20;3.20;;;;;;;;5299711;27;8785;-77
2023/01/12 08:21:44;;;;;;;;;4.80;4.80;;;;;;;;5298699;27;8785;-76
2023/01/12 08:24:19;;;;;;;;;3.40;3.40;;;;;;;;5282243;27;8793;-76
2023/01/12 08:26:53;;;;;;;;;3.00;3.00;;;;;;;;5281835;27;8812;-76
2023/01/12 08:29:31;;;;;;;;;6.00;6.00;;;;;;;;5299333;27;8816;-76
2023/01/12 08:32:05;;;;;;;;;6.00;6.00;;;;;;;;5299531;27;8769;-78
2023/01/12 08:34:37;;;;;;;;;3.00;3.00;;;;;;;;5298217;27;8836;-78
2023/01/12 08:37:10;;;;;;;;;2.60;2.60;;;;;;;;5298444;27;8762;-78
2023/01/12 08:39:41;;;;;;;;;0.00;0.00;;;;;;;;5281346;27;8808;-78
2023/01/12 08:42:15;;;;;;;;;3.40;3.40;;;;;;;;5281489;27;8793;-78
2023/01/12 08:44:50;;;;;;;;;3.60;3.60;;;;;;;;5315657;27;8784;-78
2023/01/12 08:47:26;;;;;;;;;3.00;3.00;;;;;;;;5299005;27;8769;-78
2023/01/12 08:49:59;;;;;;;;;3.60;3.60;;;;;;;;5281330;27;9554;-72
2023/01/12 08:52:31;;;;;;;;;1.80;1.80;;;;;;;;5298661;27;8778;-76
2023/01/12 08:55:03;;;;;;;;;10.60;9.60;;;;;;;;5298967;27;8857;-76
2023/01/12 08:57:54;;;;;;;;;4.40;4.40;;;;;;;;5317850;27;8785;-77
2023/01/12 09:00:43;;;;;;;;;3.00;3.00;;;;;;;;5286798;27;8793;-77
2023/01/12 09:03:14;;;;;;;;;1.40;1.40;;;;;;;;5315143;27;8770;-76
2023/01/12 09:05:46;;;;;;;;;3.00;3.00;;;;;;;;5297771;27;8819;-76
2023/01/12 09:08:18;;;;;;;;;6.00;6.00;;;;;;;;5297615;27;8745;-75
2023/01/12 09:11:09;;;;;;;;;3.00;3.00;;;;;;;;5300005;27;8816;-75
2023/01/12 09:13:41;;;;;;;;;6.00;5.60;;;;;;;;5280655;27;8774;-77
2023/01/12 09:16:32;;;;;;;;;6.40;6.40;;;;;;;;5314634;27;8766;-77
2023/01/12 09:19:03;;;;;;;;;7.60;7.60;;;;;;;;5314955;27;9448;-77
2023/01/12 09:21:37;;;;;;;;;4.40;4.40;;;;;;;;5296730;27;8766;-75
2023/01/12 09:24:11;;;;;;;;;5.20;5.20;;;;;;;;5316468;27;8745;-76
2023/01/12 09:26:43;;;;;;;;;6.20;6.20;;;;;;;;5297460;27;8785;-75
2023/01/12 09:29:32;;;;;;;;;6.40;6.40;;;;;;;;5300435;27;8785;-77
2023/01/12 09:36:29;;;;;;;;;10.40;8.60;;;;;;;;5332644;27;8694;-79
2023/01/12 09:39:00;;;;;;;;;7.00;7.00;;;;;;;;5297909;27;8750;-76
2023/01/12 09:47:29;;;;;;;;;0.80;0.80;;;;;;;;5297246;27;8750;-76
2023/01/12 09:50:21;;;;;;;;;4.00;4.00;;;;;;;;5280516;27;9615;-75
2023/01/12 09:53:04;;;;;;;;;5.80;5.20;;;;;;;;5279670;27;8765;-75
2023/01/12 09:55:35;;;;;;;;;9.20;8.60;;;;;;;;5280054;27;8789;-76
2023/01/12 09:58:12;;;;;;;;;6.25;6.25;;;;;;;;5314079;27;8773;-75
2023/01/12 10:00:55;;;;;;;;;6.80;6.00;;;;;;;;5297141;27;11359;-76
2023/01/12 10:03:37;;;;;;;;;8.00;7.00;;;;;;;;5279634;27;8778;-73
2023/01/12 10:10:31;;;;;;;;;8.60;8.60;;;;;;;;5334930;27;8789;-81
2023/01/12 10:13:06;;;;;;;;;7.80;7.80;;;;;;;;5296674;27;8762;-78
2023/01/12 10:15:54;;;;;;;;;1.00;1.00;;;;;;;;5313468;27;8766;-77
2023/01/12 10:18:32;;;;;;;;;8.40;8.40;;;;;;;;5296206;27;8757;-73
2023/01/12 10:21:08;;;;;;;;;6.20;6.20;;;;;;;;5279624;27;8774;-74
2023/01/12 10:23:39;;;;;;;;;3.00;3.00;;;;;;;;5296544;27;8892;-73
2023/01/12 10:26:20;;;;;;;;;7.60;7.40;;;;;;;;5312953;27;8796;-75
2023/01/12 10:28:53;;;;;;;;;3.80;3.80;;;;;;;;5279903;27;8769;-74
2023/01/12 10:31:25;;;;;;;;;5.80;5.20;;;;;;;;5296164;27;8762;-75
2023/01/12 10:34:14;;;;;;;;;8.60;8.60;;;;;;;;5297743;27;8770;-73
2023/01/12 10:36:48;;;;;;;;;6.00;6.00;;;;;;;;5278938;27;8784;-74
2023/01/12 10:39:27;;;;;;;;;7.60;7.60;;;;;;;;5312903;27;8774;-73
2023/01/12 10:43:17;;;;;;;;;5.40;5.40;;;;;;;;5279407;27;8821;-73
2023/01/12 10:45:13;;;;;;;;;3.20;3.20;;;;;;;;5295840;27;8872;-74
2023/01/12 10:47:45;;;;;;;;;3.20;3.20;;;;;;;;5279563;27;8774;-75
2023/01/12 10:50:36;;;;;;;;;4.00;4.00;;;;;;;;5313223;27;8819;-76
2023/01/12 10:53:28;;;;;;;;;7.80;7.40;;;;;;;;5313210;27;8789;-77
2023/01/12 10:56:35;;;;;;;;;9.20;8.20;;;;;;;;5298469;27;8781;-74
2023/01/12 10:59:12;;;;;;;;;4.40;4.00;;;;;;;;5312948;27;8789;-73
2023/01/12 11:01:51;;;;;;;;;4.80;4.80;;;;;;;;5295940;27;9504;-76
2023/01/12 11:04:23;;;;;;;;;4.40;4.40;;;;;;;;5279065;27;8773;-77
2023/01/12 11:07:14;;;;;;;;;4.00;4.00;;;;;;;;5295907;27;8758;-76
2023/01/12 11:09:45;;;;;;;;;3.40;3.40;;;;;;;;5289150;27;8782;-76
2023/01/12 11:12:27;;;;;;;;;6.50;6.00;;;;;;;;5313525;27;8762;-74
2023/01/12 11:15:00;;;;;;;;;6.40;6.40;;;;;;;;5278867;27;10138;-74
2023/01/12 11:17:50;;;;;;;;;4.00;4.00;;;;;;;;5296434;27;8754;-77
2023/01/12 11:24:41;;;;;;;;;10.00;9.00;;;;;;;;5331056;27;8837;-74
2023/01/12 11:27:16;;;;;;;;;7.00;7.00;;;;;;;;5279353;27;8769;-75
2023/01/12 11:30:13;;;;;;;;;4.40;4.40;;;;;;;;5295244;27;8837;-70
2023/01/12 11:32:47;;;;;;;;;8.80;8.80;;;;;;;;5296134;27;8765;-76
2023/01/12 11:35:21;;;;;;;;;6.40;6.40;;;;;;;;5278611;27;8750;-75
2023/01/12 11:37:54;;;;;;;;;3.80;3.80;;;;;;;;5296365;27;8762;-79
2023/01/12 11:40:33;;;;;;;;;7.00;7.00;;;;;;;;5312372;27;8790;-75
2023/01/12 11:46:13;;;;;;;;;6.80;6.80;;;;;;;;5299579;27;8750;-77
2023/01/12 11:48:54;;;;;;;;;6.00;6.00;;;;;;;;5299411;27;8758;-76
2023/01/12 11:51:25;;;;;;;;;5.80;4.80;;;;;;;;5282262;27;8770;-74
2023/01/12 11:53:56;;;;;;;;;6.60;5.20;;;;;;;;5282393;27;8789;-74
2023/01/12 11:56:45;;;;;;;;;4.80;4.80;;;;;;;;5300021;27;8774;-75
2023/01/12 11:59:23;;;;;;;;;3.00;3.00;;;;;;;;5282918;27;8777;-74
2023/01/12 12:01:54;;;;;;;;;3.80;3.80;;;;;;;;5282691;27;8850;-73
2023/01/12 12:04:45;;;;;;;;;4.80;4.80;;;;;;;;5282193;27;8774;-75
2023/01/12 12:07:44;;;;;;;;;4.00;4.00;;;;;;;;5301904;27;9507;-73
2023/01/12 12:14:57;;;;;;;;;3.40;3.40;;;;;;;;5334849;27;8718;-74
2023/01/12 12:18:10;;;;;;;;;2.60;2.60;;;;;;;;5302297;27;8782;-74
2023/01/12 12:21:06;;;;;;;;;4.00;4.00;;;;;;;;5299453;27;8908;-73
2023/01/12 12:23:40;;;;;;;;;2.20;2.20;;;;;;;;5315578;27;8750;-73
2023/01/12 12:26:20;;;;;;;;;6.00;4.40;;;;;;;;5298108;27;8785;-73
2023/01/12 12:29:10;;;;;;;;;3.00;3.00;;;;;;;;5298602;27;8769;-77
2023/01/12 12:31:59;;;;;;;;;4.40;4.40;;;;;;;;5335930;27;8758;-78
2023/01/12 12:34:50;;;;;;;;;7.40;4.40;;;;;;;;5334605;27;8766;-78
2023/01/12 12:37:32;;;;;;;;;9.60;9.60;;;;;;;;5281847;27;9506;-77
2023/01/12 12:40:22;;;;;;;;;9.00;9.00;;;;;;;;5298566;27;8750;-75
2023/01/12 12:46:20;;;;;;;;;5.80;5.60;;;;;;;;5315831;27;8766;-78
2023/01/12 12:49:13;;;;;;;;;8.60;6.20;;;;;;;;5316289;27;8792;-76
2023/01/12 12:51:55;;;;;;;;;3.20;3.20;;;;;;;;5281544;27;8785;-78
2023/01/12 12:54:26;;;;;;;;;0.00;0.00;;;;;;;;5316007;27;8797;-76
2023/01/12 12:56:57;;;;;;;;;3.00;3.00;;;;;;;;5297462;27;8776;-77
2023/01/12 12:59:32;;;;;;;;;4.40;4.40;;;;;;;;5281880;27;8785;-79
2023/01/12 13:02:03;;;;;;;;;4.80;4.80;;;;;;;;5300023;27;9526;-79
2023/01/12 13:04:53;;;;;;;;;3.00;3.00;;;;;;;;5300646;27;8880;-74
2023/01/12 13:07:25;;;;;;;;;3.00;3.00;;;;;;;;5298403;27;8758;-74
2023/01/12 13:10:17;;;;;;;;;6.00;6.00;;;;;;;;5300866;27;8854;-75
2023/01/12 13:12:55;;;;;;;;;1.80;1.80;;;;;;;;5281830;27;8765;-75
2023/01/12 13:15:35;;;;;;;;;2.80;2.80;;;;;;;;5299349;27;8761;-75
2023/01/12 13:18:26;;;;;;;;;5.60;5.60;;;;;;;;5281681;27;8777;-75
2023/01/12 13:20:58;;;;;;;;;9.80;9.80;;;;;;;;5283572;27;8766;-74
2023/01/12 13:23:46;;;;;;;;;3.80;3.80;;;;;;;;5307497;27;8749;-75
2023/01/12 13:26:23;;;;;;;;;1.00;1.00;;;;;;;;5310317;27;8758;-74
2023/01/12 13:29:14;;;;;;;;;5.60;5.60;;;;;;;;5285889;27;8757;-74
2023/01/12 13:31:46;;;;;;;;;3.60;3.60;;;;;;;;5315647;27;8838;-74
2023/01/12 13:34:35;;;;;;;;;2.60;2.60;;;;;;;;5298348;27;8769;-75
2023/01/12 13:37:28;;;;;;;;;3.80;3.80;;;;;;;;5283489;27;9480;-74
2023/01/12 13:40:09;;;;;;;;;15.60;15.60;;;;;;;;5282225;27;8765;-76
2023/01/12 13:45:56;;;;;;;;;6.80;6.00;;;;;;;;5315630;27;8765;-74
2023/01/12 13:48:29;;;;;;;;;6.00;5.40;;;;;;;;5284753;27;8754;-75
2023/01/12 13:51:02;;;;;;;;;26.40;20.20;;;;;;;;5304460;27;9623;-75
2023/01/12 13:53:33;;;;;;;;;3.00;3.00;;;;;;;;5286035;27;8767;-76
2023/01/12 13:56:23;;;;;;;;;4.00;4.00;;;;;;;;5304609;27;8777;-77
2023/01/12 13:58:59;;;;;;;;;4.00;4.00;;;;;;;;5298917;27;8804;-75
2023/01/12 14:06:29;;;;;;;;;7.00;7.00;;;;;;;;5332929;27;8765;-73
2023/01/12 14:09:12;;;;;;;;;6.60;6.60;;;;;;;;5176261;28;9514;-75
2023/01/12 14:23:33;;;;;;;;;10.00;10.00;;;;;;;;5289452;28;8691;-77
2023/01/12 14:26:25;;;;;;;;;7.40;7.00;;;;;;;;5273924;28;8750;-81
2023/01/12 14:33:30;;;;;;;;;5.60;5.60;;;;;;;;5289392;28;8714;-75
2023/01/12 14:36:12;;;;;;;;;15.80;14.60;;;;;;;;5238089;28;8773;-77
2023/01/12 14:38:44;;;;;;;;;6.80;6.80;;;;;;;;5271985;28;9492;-79
2023/01/12 14:51:36;;;;;;;;;9.00;9.00;;;;;;;;5310821;27;9429;-79
2023/01/12 14:54:18;;;;;;;;;4.00;4.00;;;;;;;;5292814;27;9445;-77
2023/01/12 14:57:01;;;;;;;;;4.40;4.40;;;;;;;;5277958;27;8782;-79
2023/01/12 14:59:35;;;;;;;;;7.00;7.00;;;;;;;;5258686;27;8894;-74
2023/01/12 15:02:12;;;;;;;;;4.40;3.60;;;;;;;;5275398;27;8762;-79
2023/01/12 15:04:50;;;;;;;;;6.60;6.20;;;;;;;;5258532;27;8846;-78
2023/01/12 15:07:22;;;;;;;;;3.40;3.00;;;;;;;;5270625;28;8792;-78
2023/01/12 15:09:58;;;;;;;;;18.40;18.00;;;;;;;;5239115;28;8899;-82
2023/01/12 15:12:29;;;;;;;;;6.20;6.20;;;;;;;;5255439;28;8776;-82
2023/01/12 15:15:15;;;;;;;;;8.60;7.80;;;;;;;;5255256;28;8860;-82
2023/01/12 15:35:12;;;;;;;;;14.20;13.00;;;;;;;;5315844;27;8691;-81
2023/01/12 15:37:49;;;;;;;;;11.40;10.40;;;;;;;;5316172;27;8775;-85
2023/01/12 15:40:20;;;;;;;;;12.80;12.80;;;;;;;;5264013;27;8885;-86
2023/01/12 15:42:52;;;;;;;;;8.20;8.00;;;;;;;;5289672;27;8822;-85
2023/01/12 15:45:40;;;;;;;;;9.60;8.60;;;;;;;;5280134;27;8776;-82
2023/01/12 15:48:13;;;;;;;;;6.20;6.20;;;;;;;;5278823;27;9524;-80
2023/01/12 15:51:02;;;;;;;;;20.80;19.20;;;;;;;;5298532;27;8814;-77
2023/01/12 15:53:36;;;;;;;;;7.00;7.00;;;;;;;;5315178;27;8779;-81
2023/01/12 15:56:10;;;;;;;;;2.60;1.00;;;;;;;;5298926;27;8876;-79
2023/01/12 15:58:41;;;;;;;;;4.00;4.00;;;;;;;;5315869;27;8846;-80
2023/01/12 16:01:15;;;;;;;;;6.20;6.20;;;;;;;;5296306;27;8856;-79
2023/01/12 16:03:47;;;;;;;;;5.60;5.60;;;;;;;;5278099;27;8799;-78
2023/01/12 16:06:18;;;;;;;;;4.40;4.40;;;;;;;;5296248;27;9569;-81
2023/01/12 16:08:49;;;;;;;;;6.60;6.40;;;;;;;;5280347;27;8794;-82
2023/01/12 16:11:38;;;;;;;;;4.00;4.00;;;;;;;;5301352;27;8871;-84
2023/01/12 16:18:33;;;;;;;;;6.40;6.40;;;;;;;;5314203;27;8727;-78
2023/01/12 16:21:04;;;;;;;;;0.60;0.60;;;;;;;;5298086;27;8817;-81
2023/01/12 16:23:39;;;;;;;;;7.80;7.80;;;;;;;;5295779;27;9458;-78
2023/01/12 16:26:10;;;;;;;;;5.80;4.40;;;;;;;;5296810;27;8775;-81
2023/01/12 16:29:00;;;;;;;;;91.75;71.00;;;;;;;;5298003;27;8783;-80
2023/01/12 16:31:50;;;;;;;;;10.00;9.60;;;;;;;;5298151;27;8783;-76
2023/01/12 16:34:40;;;;;;;;;13.40;12.60;;;;;;;;5297291;27;9511;-79
2023/01/12 16:37:13;;;;;;;;;5.60;5.60;;;;;;;;5311350;27;8803;-77
2023/01/12 16:39:44;;;;;;;;;4.00;3.60;;;;;;;;5313607;27;8787;-75
2023/01/12 16:42:35;;;;;;;;;20.00;20.00;;;;;;;;5294879;27;8817;-78
2023/01/12 16:45:11;;;;;;;;;68.20;50.40;;;;;;;;5294769;27;8787;-79
2023/01/12 16:47:43;;;;;;;;;11.40;11.20;;;;;;;;5295423;27;8902;-81
2023/01/12 16:50:17;;;;;;;;;14.80;14.40;;;;;;;;5276994;27;8887;-77
2023/01/12 16:52:49;;;;;;;;;16.40;16.40;;;;;;;;5294195;27;8791;-79
2023/01/12 16:55:22;;;;;;;;;10.00;10.00;;;;;;;;5312538;27;8863;-77
2023/01/12 16:57:53;;;;;;;;;18.40;16.80;;;;;;;;5294242;27;8840;-78
2023/01/12 17:00:30;;;;;;;;;19.40;19.40;;;;;;;;5312935;27;8784;-79
2023/01/12 17:03:02;;;;;;;;;11.00;9.20;;;;;;;;5312629;27;8763;-81
2023/01/12 17:05:36;;;;;;;;;6.00;6.00;;;;;;;;5294407;27;8898;-83
2023/01/12 17:08:08;;;;;;;;;8.20;8.20;;;;;;;;5277906;27;8859;-80
2023/01/12 17:10:39;;;;;;;;;6.80;6.80;;;;;;;;5277018;27;8817;-79
2023/01/12 17:13:10;;;;;;;;;6.60;6.60;;;;;;;;5311114;27;8779;-78
2023/01/12 17:15:41;;;;;;;;;9.00;9.00;;;;;;;;5276780;27;8811;-79
2023/01/12 17:18:12;;;;;;;;;10.40;10.40;;;;;;;;5310495;27;9070;-79
2023/01/12 17:20:43;;;;;;;;;136.67;104.67;;;;;;;;5312717;27;8779;-77
2023/01/12 17:23:14;;;;;;;;;13.60;13.60;;;;;;;;5311908;27;8787;-80
2023/01/12 17:30:08;;;;;;;;;16.80;13.60;;;;;;;;5311812;27;11460;-82
2023/01/12 17:37:03;;;;;;;;;9.00;9.00;;;;;;;;5311685;27;8719;-81
2023/01/12 17:39:41;;;;;;;;;10.20;8.20;;;;;;;;5293791;27;8787;-82
2023/01/12 17:45:04;;;;;;;;;13.20;12.40;;;;;;;;5300180;27;8760;-83
2023/01/12 17:47:36;;;;;;;;;17.40;17.00;;;;;;;;5281881;27;8894;-82
2023/01/12 17:50:08;;;;;;;;;12.60;10.80;;;;;;;;5297658;27;9534;-80
2023/01/12 17:52:39;;;;;;;;;58.60;49.80;;;;;;;;5280374;27;9501;-80
2023/01/12 17:55:28;;;;;;;;;13.80;13.80;;;;;;;;5300404;27;9474;-80
2023/01/12 17:58:00;;;;;;;;;9.80;7.80;;;;;;;;5297337;27;8787;-78
2023/01/12 18:00:31;;;;;;;;;12.00;12.00;;;;;;;;5280708;27;8776;-79
2023/01/12 18:03:03;;;;;;;;;13.00;12.40;;;;;;;;5281242;27;8767;-82
2023/01/12 18:05:34;;;;;;;;;9.00;9.00;;;;;;;;5281531;27;8772;-80
2023/01/12 18:08:23;;;;;;;;;12.60;12.60;;;;;;;;5300946;27;9587;-78
2023/01/12 18:10:54;;;;;;;;;13.80;12.60;;;;;;;;5298557;27;8876;-81
2023/01/12 18:13:25;;;;;;;;;9.00;9.00;;;;;;;;5279911;27;8833;-79
2023/01/12 18:15:56;;;;;;;;;6.40;6.40;;;;;;;;5284239;27;8764;-83
2023/01/12 18:22:54;;;;;;;;;6.80;5.20;;;;;;;;5347626;27;8696;-81
2023/01/12 18:26:05;;;;;;;;;8.20;7.60;;;;;;;;5309780;27;8776;-81
2023/01/12 18:28:36;;;;;;;;;6.40;6.40;;;;;;;;5280346;27;8785;-80
2023/01/12 18:31:08;;;;;;;;;14.00;12.25;;;;;;;;5280684;27;8823;-78